sensor_id;sensor_type;location;lat;lon;timestamp;temperature;humidity
20204;DHT22;10261;49.010;12.034;2023-06-26T00:00:20;15.70;99.90
20204;DHT22;10261;49.010;12.034;2023-06-26T00:01:23;15.60;99.90
20204;DHT22;10261;49.010;12.034;2023-06-26T00:02:25;15.70;99.90
20204;DHT22;10261;49.010;12.034;2023-06-26T00:03:29;15.70;99.90
20204;DHT22;10261;49.010;12.034;2023-06-26T00:04:31;15.70;99.90
20204;DHT22;10261;49.010;12.034;2023-06-26T00:05:34;15.70;99.90
20204;DHT22;10261;49.010;12.034;2023-06-26T00:07:40;15.70;99.90
20204;DHT22;10261;49.010;12.034;2023-06-26T00:08:41;15.60;99.90
20204;DHT22;10261;49.010;12.034;2023-06-26T00:09:45;15.60;99.90
20204;DHT22;10261;49.010;12.034;2023-06-26T00:10:47;15.50;99.90
20204;DHT22;10261;49.010;12.034;2023-06-26T00:11:53;15.60;99.90
20204;DHT22;10261;49.010;12.034;2023-06-26T00:12:55;15.60;99.90
20204;DHT22;10261;49.010;12.034;2023-06-26T00:13:58;15.50;99.90
20204;DHT22;10261;49.010;12.034;2023-06-26T00:15:02;15.50;99.90
20204;DHT22;10261;49.010;12.034;2023-06-26T00:16:04;15.50;99.90
20204;DHT22;10261;49.010;12.034;2023-06-26T00:17:06;15.50;99.90
20204;DHT22;10261;49.010;12.034;2023-06-26T00:18:09;15.50;99.90
20204;DHT22;10261;49.010;12.034;2023-06-26T00:19:12;15.50;99.90
20204;DHT22;10261;49.010;12.034;2023-06-26T00:20:15;15.50;99.90
20204;DHT22;10261;49.010;12.034;2023-06-26T00:21:18;15.50;99.90
20204;DHT22;10261;49.010;12.034;2023-06-26T00:22:21;15.50;99.90
20204;DHT22;10261;49.010;12.034;2023-06-26T00:23:23;15.50;99.90
20204;DHT22;10261;49.010;12.034;2023-06-26T00:24:26;15.60;99.90
20204;DHT22;10261;49.010;12.034;2023-06-26T00:25:28;15.50;99.90
20204;DHT22;10261;49.010;12.034;2023-06-26T00:26:31;15.50;99.90
20204;DHT22;10261;49.010;12.034;2023-06-26T00:28:36;15.40;99.90
20204;DHT22;10261;49.010;12.034;2023-06-26T00:29:38;15.40;99.90
20204;DHT22;10261;49.010;12.034;2023-06-26T00:30:41;15.40;99.90
20204;DHT22;10261;49.010;12.034;2023-06-26T00:31:43;15.40;99.90
20204;DHT22;10261;49.010;12.034;2023-06-26T00:33:48;15.30;99.90
20204;DHT22;10261;49.010;12.034;2023-06-26T00:34:53;15.30;99.90
20204;DHT22;10261;49.010;12.034;2023-06-26T00:35:55;15.30;99.90
20204;DHT22;10261;49.010;12.034;2023-06-26T00:36:57;15.30;99.90
20204;DHT22;10261;49.010;12.034;2023-06-26T00:38:00;15.30;99.90
20204;DHT22;10261;49.010;12.034;2023-06-26T00:39:02;15.20;99.90
20204;DHT22;10261;49.010;12.034;2023-06-26T00:40:05;15.30;99.90
20204;DHT22;10261;49.010;12.034;2023-06-26T00:41:08;15.30;99.90
20204;DHT22;10261;49.010;12.034;2023-06-26T00:42:14;15.30;99.90
20204;DHT22;10261;49.010;12.034;2023-06-26T00:43:17;15.20;99.90
20204;DHT22;10261;49.010;12.034;2023-06-26T00:44:19;15.20;99.90
20204;DHT22;10261;49.010;12.034;2023-06-26T00:46:38;15.20;99.90
20204;DHT22;10261;49.010;12.034;2023-06-26T00:47:41;15.20;99.90
20204;DHT22;10261;49.010;12.034;2023-06-26T00:48:45;15.20;99.90
20204;DHT22;10261;49.010;12.034;2023-06-26T00:49:48;15.20;99.90
20204;DHT22;10261;49.010;12.034;2023-06-26T00:50:51;15.10;99.90
20204;DHT22;10261;49.010;12.034;2023-06-26T00:51:54;15.10;99.90
20204;DHT22;10261;49.010;12.034;2023-06-26T00:52:57;15.10;99.90
20204;DHT22;10261;49.010;12.034;2023-06-26T00:54:02;15.10;99.90
20204;DHT22;10261;49.010;12.034;2023-06-26T00:55:04;15.10;99.90
20204;DHT22;10261;49.010;12.034;2023-06-26T00:56:08;15.10;99.90
20204;DHT22;10261;49.010;12.034;2023-06-26T00:57:10;15.00;99.90
20204;DHT22;10261;49.010;12.034;2023-06-26T00:58:13;15.00;99.90
20204;DHT22;10261;49.010;12.034;2023-06-26T00:59:15;15.00;99.90
20204;DHT22;10261;49.010;12.034;2023-06-26T01:00:18;15.00;99.90
20204;DHT22;10261;49.010;12.034;2023-06-26T01:01:20;15.00;99.90
20204;DHT22;10261;49.010;12.034;2023-06-26T01:02:27;15.10;99.90
20204;DHT22;10261;49.010;12.034;2023-06-26T01:03:35;15.00;99.90
20204;DHT22;10261;49.010;12.034;2023-06-26T01:04:41;15.10;99.90
20204;DHT22;10261;49.010;12.034;2023-06-26T01:05:48;15.10;99.90
20204;DHT22;10261;49.010;12.034;2023-06-26T01:06:54;15.10;99.90
20204;DHT22;10261;49.010;12.034;2023-06-26T01:07:57;15.00;99.90
20204;DHT22;10261;49.010;12.034;2023-06-26T01:10:03;15.00;99.90
20204;DHT22;10261;49.010;12.034;2023-06-26T01:11:07;15.00;99.90
20204;DHT22;10261;49.010;12.034;2023-06-26T01:12:09;14.90;99.90
20204;DHT22;10261;49.010;12.034;2023-06-26T01:14:15;14.90;99.90
20204;DHT22;10261;49.010;12.034;2023-06-26T01:15:18;14.90;99.90
20204;DHT22;10261;49.010;12.034;2023-06-26T01:16:20;15.00;99.90
20204;DHT22;10261;49.010;12.034;2023-06-26T01:17:24;15.00;99.90
20204;DHT22;10261;49.010;12.034;2023-06-26T01:18:26;14.90;99.90
20204;DHT22;10261;49.010;12.034;2023-06-26T01:19:31;15.00;99.90
20204;DHT22;10261;49.010;12.034;2023-06-26T01:20:37;14.90;99.90
20204;DHT22;10261;49.010;12.034;2023-06-26T01:21:44;14.90;99.90
20204;DHT22;10261;49.010;12.034;2023-06-26T01:23:03;14.90;99.90
20204;DHT22;10261;49.010;12.034;2023-06-26T01:24:15;14.80;99.90
20204;DHT22;10261;49.010;12.034;2023-06-26T01:25:29;14.80;99.90
20204;DHT22;10261;49.010;12.034;2023-06-26T01:26:41;14.80;99.90
20204;DHT22;10261;49.010;12.034;2023-06-26T01:27:46;14.80;99.90
20204;DHT22;10261;49.010;12.034;2023-06-26T01:28:50;14.80;99.90
20204;DHT22;10261;49.010;12.034;2023-06-26T01:29:53;14.70;99.90
20204;DHT22;10261;49.010;12.034;2023-06-26T01:30:58;14.80;99.90
20204;DHT22;10261;49.010;12.034;2023-06-26T01:32:01;14.80;99.90
20204;DHT22;10261;49.010;12.034;2023-06-26T01:33:04;14.70;99.90
20204;DHT22;10261;49.010;12.034;2023-06-26T01:34:07;14.80;99.90
20204;DHT22;10261;49.010;12.034;2023-06-26T01:35:11;14.80;99.90
20204;DHT22;10261;49.010;12.034;2023-06-26T01:36:13;14.80;99.90
20204;DHT22;10261;49.010;12.034;2023-06-26T01:38:20;14.80;99.90
20204;DHT22;10261;49.010;12.034;2023-06-26T01:40:27;14.80;99.90
20204;DHT22;10261;49.010;12.034;2023-06-26T01:41:30;14.80;99.90
20204;DHT22;10261;49.010;12.034;2023-06-26T01:42:34;14.80;99.90
20204;DHT22;10261;49.010;12.034;2023-06-26T01:43:43;14.80;99.90
20204;DHT22;10261;49.010;12.034;2023-06-26T01:44:54;14.80;99.90
20204;DHT22;10261;49.010;12.034;2023-06-26T01:46:01;14.60;99.90
20204;DHT22;10261;49.010;12.034;2023-06-26T01:47:05;14.60;99.90
20204;DHT22;10261;49.010;12.034;2023-06-26T01:48:10;14.60;99.90
20204;DHT22;10261;49.010;12.034;2023-06-26T01:49:19;14.60;99.90
20204;DHT22;10261;49.010;12.034;2023-06-26T01:50:26;14.60;99.90
20204;DHT22;10261;49.010;12.034;2023-06-26T01:51:32;14.50;99.90
20204;DHT22;10261;49.010;12.034;2023-06-26T01:52:41;14.50;99.90
20204;DHT22;10261;49.010;12.034;2023-06-26T01:53:46;14.60;99.90
20204;DHT22;10261;49.010;12.034;2023-06-26T01:54:56;14.60;99.90
20204;DHT22;10261;49.010;12.034;2023-06-26T01:56:06;14.60;99.90
20204;DHT22;10261;49.010;12.034;2023-06-26T01:57:10;14.70;99.90
20204;DHT22;10261;49.010;12.034;2023-06-26T01:58:14;14.60;99.90
20204;DHT22;10261;49.010;12.034;2023-06-26T01:59:20;14.60;99.90
20204;DHT22;10261;49.010;12.034;2023-06-26T02:00:24;14.60;99.90
20204;DHT22;10261;49.010;12.034;2023-06-26T02:03:33;14.70;99.90
20204;DHT22;10261;49.010;12.034;2023-06-26T02:04:35;14.70;99.90
20204;DHT22;10261;49.010;12.034;2023-06-26T02:05:39;14.60;99.90
20204;DHT22;10261;49.010;12.034;2023-06-26T02:07:46;14.60;99.90
20204;DHT22;10261;49.010;12.034;2023-06-26T02:08:49;14.70;99.90
20204;DHT22;10261;49.010;12.034;2023-06-26T02:09:51;14.60;99.90
20204;DHT22;10261;49.010;12.034;2023-06-26T02:13:00;14.50;99.90
20204;DHT22;10261;49.010;12.034;2023-06-26T02:14:03;14.50;99.90
20204;DHT22;10261;49.010;12.034;2023-06-26T02:15:07;14.50;99.90
20204;DHT22;10261;49.010;12.034;2023-06-26T02:16:09;14.50;99.90
20204;DHT22;10261;49.010;12.034;2023-06-26T02:17:12;14.50;99.90
20204;DHT22;10261;49.010;12.034;2023-06-26T02:18:14;14.60;99.90
20204;DHT22;10261;49.010;12.034;2023-06-26T02:19:17;14.50;99.90
20204;DHT22;10261;49.010;12.034;2023-06-26T02:20:23;14.50;99.90
20204;DHT22;10261;49.010;12.034;2023-06-26T02:21:26;14.50;99.90
20204;DHT22;10261;49.010;12.034;2023-06-26T02:22:28;14.50;99.90
20204;DHT22;10261;49.010;12.034;2023-06-26T02:23:31;14.50;99.90
20204;DHT22;10261;49.010;12.034;2023-06-26T02:24:33;14.50;99.90
20204;DHT22;10261;49.010;12.034;2023-06-26T02:25:36;14.50;99.90
20204;DHT22;10261;49.010;12.034;2023-06-26T02:26:38;14.40;99.90
20204;DHT22;10261;49.010;12.034;2023-06-26T02:27:40;14.30;99.90
20204;DHT22;10261;49.010;12.034;2023-06-26T02:28:44;14.30;99.90
20204;DHT22;10261;49.010;12.034;2023-06-26T02:29:48;14.30;99.90
20204;DHT22;10261;49.010;12.034;2023-06-26T02:30:50;14.40;99.90
20204;DHT22;10261;49.010;12.034;2023-06-26T02:32:55;14.40;99.90
20204;DHT22;10261;49.010;12.034;2023-06-26T02:33:58;14.30;99.90
20204;DHT22;10261;49.010;12.034;2023-06-26T02:35:00;14.20;99.90
20204;DHT22;10261;49.010;12.034;2023-06-26T02:36:03;14.30;99.90
20204;DHT22;10261;49.010;12.034;2023-06-26T02:37:05;14.40;99.90
20204;DHT22;10261;49.010;12.034;2023-06-26T02:38:09;14.30;99.90
20204;DHT22;10261;49.010;12.034;2023-06-26T02:39:11;14.40;99.90
20204;DHT22;10261;49.010;12.034;2023-06-26T02:40:15;14.30;99.90
20204;DHT22;10261;49.010;12.034;2023-06-26T02:41:17;14.20;99.90
20204;DHT22;10261;49.010;12.034;2023-06-26T02:42:20;14.20;99.90
20204;DHT22;10261;49.010;12.034;2023-06-26T02:43:22;14.30;99.90
20204;DHT22;10261;49.010;12.034;2023-06-26T02:44:25;14.20;99.90
20204;DHT22;10261;49.010;12.034;2023-06-26T02:45:29;14.30;99.90
20204;DHT22;10261;49.010;12.034;2023-06-26T02:46:31;14.30;99.90
20204;DHT22;10261;49.010;12.034;2023-06-26T02:47:35;14.30;99.90
20204;DHT22;10261;49.010;12.034;2023-06-26T02:48:38;14.20;99.90
20204;DHT22;10261;49.010;12.034;2023-06-26T02:49:41;14.20;99.90
20204;DHT22;10261;49.010;12.034;2023-06-26T02:50:43;14.30;99.90
20204;DHT22;10261;49.010;12.034;2023-06-26T02:51:48;14.30;99.90
20204;DHT22;10261;49.010;12.034;2023-06-26T02:52:50;14.20;99.90
20204;DHT22;10261;49.010;12.034;2023-06-26T02:53:54;14.10;99.90
20204;DHT22;10261;49.010;12.034;2023-06-26T02:54:56;14.10;99.90
20204;DHT22;10261;49.010;12.034;2023-06-26T02:55:58;14.10;99.90
20204;DHT22;10261;49.010;12.034;2023-06-26T02:57:00;14.10;99.90
20204;DHT22;10261;49.010;12.034;2023-06-26T02:58:03;14.20;99.90
20204;DHT22;10261;49.010;12.034;2023-06-26T02:59:06;14.20;99.90
20204;DHT22;10261;49.010;12.034;2023-06-26T03:00:10;14.20;99.90
20204;DHT22;10261;49.010;12.034;2023-06-26T03:01:14;14.20;99.90
20204;DHT22;10261;49.010;12.034;2023-06-26T03:02:19;14.30;99.90
20204;DHT22;10261;49.010;12.034;2023-06-26T03:03:20;14.30;99.90
20204;DHT22;10261;49.010;12.034;2023-06-26T03:04:23;14.20;99.90
20204;DHT22;10261;49.010;12.034;2023-06-26T03:05:25;14.20;99.90
20204;DHT22;10261;49.010;12.034;2023-06-26T03:06:28;14.20;99.90
20204;DHT22;10261;49.010;12.034;2023-06-26T03:07:30;14.20;99.90
20204;DHT22;10261;49.010;12.034;2023-06-26T03:08:34;14.20;99.90
20204;DHT22;10261;49.010;12.034;2023-06-26T03:09:36;14.30;99.90
20204;DHT22;10261;49.010;12.034;2023-06-26T03:10:39;14.20;99.90
20204;DHT22;10261;49.010;12.034;2023-06-26T03:11:42;14.20;99.90
20204;DHT22;10261;49.010;12.034;2023-06-26T03:12:45;14.10;99.90
20204;DHT22;10261;49.010;12.034;2023-06-26T03:13:47;14.10;99.90
20204;DHT22;10261;49.010;12.034;2023-06-26T03:14:49;14.20;99.90
20204;DHT22;10261;49.010;12.034;2023-06-26T03:15:51;14.10;99.90
20204;DHT22;10261;49.010;12.034;2023-06-26T03:16:56;14.00;99.90
20204;DHT22;10261;49.010;12.034;2023-06-26T03:18:00;14.00;99.90
20204;DHT22;10261;49.010;12.034;2023-06-26T03:19:02;14.00;99.90
20204;DHT22;10261;49.010;12.034;2023-06-26T03:20:07;14.00;99.90
20204;DHT22;10261;49.010;12.034;2023-06-26T03:21:10;14.00;99.90
20204;DHT22;10261;49.010;12.034;2023-06-26T03:22:14;14.00;99.90
20204;DHT22;10261;49.010;12.034;2023-06-26T03:23:16;14.00;99.90
20204;DHT22;10261;49.010;12.034;2023-06-26T03:24:19;14.00;99.90
20204;DHT22;10261;49.010;12.034;2023-06-26T03:25:21;14.00;99.90
20204;DHT22;10261;49.010;12.034;2023-06-26T03:26:23;14.00;99.90
20204;DHT22;10261;49.010;12.034;2023-06-26T03:27:29;14.00;99.90
20204;DHT22;10261;49.010;12.034;2023-06-26T03:28:32;14.10;99.90
20204;DHT22;10261;49.010;12.034;2023-06-26T03:29:33;14.10;99.90
20204;DHT22;10261;49.010;12.034;2023-06-26T03:30:36;14.00;99.90
20204;DHT22;10261;49.010;12.034;2023-06-26T03:31:39;13.90;99.90
20204;DHT22;10261;49.010;12.034;2023-06-26T03:32:43;14.10;99.90
20204;DHT22;10261;49.010;12.034;2023-06-26T03:33:45;14.00;99.90
20204;DHT22;10261;49.010;12.034;2023-06-26T03:34:48;14.10;99.90
20204;DHT22;10261;49.010;12.034;2023-06-26T03:35:50;14.10;99.90
20204;DHT22;10261;49.010;12.034;2023-06-26T03:36:53;14.10;99.90
20204;DHT22;10261;49.010;12.034;2023-06-26T03:37:56;14.10;99.90
20204;DHT22;10261;49.010;12.034;2023-06-26T03:38:58;14.00;99.90
20204;DHT22;10261;49.010;12.034;2023-06-26T03:40:01;14.00;99.90
20204;DHT22;10261;49.010;12.034;2023-06-26T03:41:06;14.00;99.90
20204;DHT22;10261;49.010;12.034;2023-06-26T03:42:09;14.10;99.90
20204;DHT22;10261;49.010;12.034;2023-06-26T03:43:10;14.10;99.90
20204;DHT22;10261;49.010;12.034;2023-06-26T03:44:13;14.10;99.90
20204;DHT22;10261;49.010;12.034;2023-06-26T03:45:15;14.10;99.90
20204;DHT22;10261;49.010;12.034;2023-06-26T03:46:19;14.20;99.90
20204;DHT22;10261;49.010;12.034;2023-06-26T03:47:21;14.20;99.90
20204;DHT22;10261;49.010;12.034;2023-06-26T03:48:25;14.20;99.90
20204;DHT22;10261;49.010;12.034;2023-06-26T03:49:27;14.20;99.90
20204;DHT22;10261;49.010;12.034;2023-06-26T03:50:30;14.20;99.90
20204;DHT22;10261;49.010;12.034;2023-06-26T03:51:32;14.20;99.90
20204;DHT22;10261;49.010;12.034;2023-06-26T03:52:35;14.20;99.90
20204;DHT22;10261;49.010;12.034;2023-06-26T03:53:37;14.20;99.90
20204;DHT22;10261;49.010;12.034;2023-06-26T03:54:40;14.20;99.90
20204;DHT22;10261;49.010;12.034;2023-06-26T03:55:42;14.20;99.90
20204;DHT22;10261;49.010;12.034;2023-06-26T03:56:44;14.20;99.90
20204;DHT22;10261;49.010;12.034;2023-06-26T03:57:46;14.20;99.90
20204;DHT22;10261;49.010;12.034;2023-06-26T03:58:49;14.20;99.90
20204;DHT22;10261;49.010;12.034;2023-06-26T03:59:52;14.20;99.90
20204;DHT22;10261;49.010;12.034;2023-06-26T04:00:55;14.20;99.90
20204;DHT22;10261;49.010;12.034;2023-06-26T04:01:57;14.30;99.90
20204;DHT22;10261;49.010;12.034;2023-06-26T04:03:00;14.30;99.90
20204;DHT22;10261;49.010;12.034;2023-06-26T04:04:03;14.30;99.90
20204;DHT22;10261;49.010;12.034;2023-06-26T04:05:07;14.30;99.90
20204;DHT22;10261;49.010;12.034;2023-06-26T04:06:09;14.30;99.90
20204;DHT22;10261;49.010;12.034;2023-06-26T04:07:11;14.40;99.90
20204;DHT22;10261;49.010;12.034;2023-06-26T04:08:14;14.40;99.90
20204;DHT22;10261;49.010;12.034;2023-06-26T04:09:16;14.40;99.90
20204;DHT22;10261;49.010;12.034;2023-06-26T04:10:19;14.40;99.90
20204;DHT22;10261;49.010;12.034;2023-06-26T04:11:22;14.50;99.90
20204;DHT22;10261;49.010;12.034;2023-06-26T04:12:24;14.40;99.90
20204;DHT22;10261;49.010;12.034;2023-06-26T04:13:27;14.40;99.90
20204;DHT22;10261;49.010;12.034;2023-06-26T04:14:29;14.30;99.90
20204;DHT22;10261;49.010;12.034;2023-06-26T04:15:32;14.40;99.90
20204;DHT22;10261;49.010;12.034;2023-06-26T04:16:33;14.30;99.90
20204;DHT22;10261;49.010;12.034;2023-06-26T04:17:36;14.40;99.90
20204;DHT22;10261;49.010;12.034;2023-06-26T04:18:38;14.30;99.90
20204;DHT22;10261;49.010;12.034;2023-06-26T04:19:42;14.30;99.90
20204;DHT22;10261;49.010;12.034;2023-06-26T04:21:08;14.30;99.90
20204;DHT22;10261;49.010;12.034;2023-06-26T04:22:13;14.20;99.90
20204;DHT22;10261;49.010;12.034;2023-06-26T04:23:15;14.30;99.90
20204;DHT22;10261;49.010;12.034;2023-06-26T04:24:17;14.40;99.90
20204;DHT22;10261;49.010;12.034;2023-06-26T04:25:19;14.40;99.90
20204;DHT22;10261;49.010;12.034;2023-06-26T04:26:22;14.40;99.90
20204;DHT22;10261;49.010;12.034;2023-06-26T04:27:24;14.50;99.90
20204;DHT22;10261;49.010;12.034;2023-06-26T04:28:27;14.50;99.90
20204;DHT22;10261;49.010;12.034;2023-06-26T04:29:29;14.50;99.90
20204;DHT22;10261;49.010;12.034;2023-06-26T04:30:32;14.50;99.90
20204;DHT22;10261;49.010;12.034;2023-06-26T04:31:34;14.60;99.90
20204;DHT22;10261;49.010;12.034;2023-06-26T04:32:37;14.60;99.90
20204;DHT22;10261;49.010;12.034;2023-06-26T04:33:39;14.60;99.90
20204;DHT22;10261;49.010;12.034;2023-06-26T04:34:45;14.70;99.90
20204;DHT22;10261;49.010;12.034;2023-06-26T04:36:51;14.70;99.90
20204;DHT22;10261;49.010;12.034;2023-06-26T04:37:53;14.70;99.90
20204;DHT22;10261;49.010;12.034;2023-06-26T04:38:56;14.70;99.90
20204;DHT22;10261;49.010;12.034;2023-06-26T04:39:58;14.70;99.90
20204;DHT22;10261;49.010;12.034;2023-06-26T04:41:01;14.80;99.90
20204;DHT22;10261;49.010;12.034;2023-06-26T04:42:03;14.80;99.90
20204;DHT22;10261;49.010;12.034;2023-06-26T04:43:06;14.80;99.90
20204;DHT22;10261;49.010;12.034;2023-06-26T04:44:08;14.80;99.90
20204;DHT22;10261;49.010;12.034;2023-06-26T04:45:11;14.80;99.90
20204;DHT22;10261;49.010;12.034;2023-06-26T04:46:12;14.80;99.90
20204;DHT22;10261;49.010;12.034;2023-06-26T04:47:16;14.80;99.90
20204;DHT22;10261;49.010;12.034;2023-06-26T04:48:18;14.80;99.90
20204;DHT22;10261;49.010;12.034;2023-06-26T04:49:21;14.80;99.90
20204;DHT22;10261;49.010;12.034;2023-06-26T04:50:24;14.90;99.90
20204;DHT22;10261;49.010;12.034;2023-06-26T04:51:27;14.90;99.90
20204;DHT22;10261;49.010;12.034;2023-06-26T04:52:30;14.90;99.90
20204;DHT22;10261;49.010;12.034;2023-06-26T04:53:33;14.90;99.90
20204;DHT22;10261;49.010;12.034;2023-06-26T04:54:35;14.90;99.90
20204;DHT22;10261;49.010;12.034;2023-06-26T04:55:38;15.00;99.90
20204;DHT22;10261;49.010;12.034;2023-06-26T04:56:40;15.00;99.90
20204;DHT22;10261;49.010;12.034;2023-06-26T04:57:43;15.00;99.90
20204;DHT22;10261;49.010;12.034;2023-06-26T04:58:45;15.00;99.90
20204;DHT22;10261;49.010;12.034;2023-06-26T04:59:48;15.00;99.90
20204;DHT22;10261;49.010;12.034;2023-06-26T05:00:51;15.00;99.90
20204;DHT22;10261;49.010;12.034;2023-06-26T05:01:53;15.00;99.90
20204;DHT22;10261;49.010;12.034;2023-06-26T05:02:56;15.00;99.90
20204;DHT22;10261;49.010;12.034;2023-06-26T05:04:03;15.00;99.90
20204;DHT22;10261;49.010;12.034;2023-06-26T05:05:06;15.00;99.90
20204;DHT22;10261;49.010;12.034;2023-06-26T05:06:09;15.00;99.90
20204;DHT22;10261;49.010;12.034;2023-06-26T05:07:12;15.00;99.90
20204;DHT22;10261;49.010;12.034;2023-06-26T05:08:15;15.20;99.90
20204;DHT22;10261;49.010;12.034;2023-06-26T05:09:19;15.20;99.90
20204;DHT22;10261;49.010;12.034;2023-06-26T05:10:21;15.30;99.90
20204;DHT22;10261;49.010;12.034;2023-06-26T05:11:24;15.40;99.90
20204;DHT22;10261;49.010;12.034;2023-06-26T05:12:26;15.50;99.90
20204;DHT22;10261;49.010;12.034;2023-06-26T05:14:31;15.70;99.90
20204;DHT22;10261;49.010;12.034;2023-06-26T05:15:34;15.70;99.90
20204;DHT22;10261;49.010;12.034;2023-06-26T05:16:36;15.80;99.90
20204;DHT22;10261;49.010;12.034;2023-06-26T05:17:38;15.80;99.90
20204;DHT22;10261;49.010;12.034;2023-06-26T05:18:40;15.80;99.90
20204;DHT22;10261;49.010;12.034;2023-06-26T05:19:45;15.70;99.90
20204;DHT22;10261;49.010;12.034;2023-06-26T05:20:47;15.70;99.90
20204;DHT22;10261;49.010;12.034;2023-06-26T05:21:52;15.80;99.90
20204;DHT22;10261;49.010;12.034;2023-06-26T05:22:55;15.70;99.90
20204;DHT22;10261;49.010;12.034;2023-06-26T05:23:58;15.70;99.90
20204;DHT22;10261;49.010;12.034;2023-06-26T05:25:03;15.70;99.90
20204;DHT22;10261;49.010;12.034;2023-06-26T05:26:06;15.80;99.90
20204;DHT22;10261;49.010;12.034;2023-06-26T05:27:11;15.80;99.90
20204;DHT22;10261;49.010;12.034;2023-06-26T05:28:21;15.90;99.90
20204;DHT22;10261;49.010;12.034;2023-06-26T05:29:27;16.00;99.90
20204;DHT22;10261;49.010;12.034;2023-06-26T05:30:29;16.10;99.90
20204;DHT22;10261;49.010;12.034;2023-06-26T05:31:33;16.10;99.90
20204;DHT22;10261;49.010;12.034;2023-06-26T05:32:42;16.10;99.90
20204;DHT22;10261;49.010;12.034;2023-06-26T05:33:46;16.20;99.90
20204;DHT22;10261;49.010;12.034;2023-06-26T05:34:51;16.30;99.90
20204;DHT22;10261;49.010;12.034;2023-06-26T05:35:57;16.30;99.90
20204;DHT22;10261;49.010;12.034;2023-06-26T05:37:02;16.40;99.90
20204;DHT22;10261;49.010;12.034;2023-06-26T05:38:05;16.40;99.90
20204;DHT22;10261;49.010;12.034;2023-06-26T05:39:09;16.60;99.90
20204;DHT22;10261;49.010;12.034;2023-06-26T05:40:12;16.70;99.90
20204;DHT22;10261;49.010;12.034;2023-06-26T05:41:16;16.80;99.90
20204;DHT22;10261;49.010;12.034;2023-06-26T05:42:18;16.70;99.90
20204;DHT22;10261;49.010;12.034;2023-06-26T05:43:22;16.80;99.90
20204;DHT22;10261;49.010;12.034;2023-06-26T05:44:29;16.90;99.90
20204;DHT22;10261;49.010;12.034;2023-06-26T05:45:32;16.90;99.90
20204;DHT22;10261;49.010;12.034;2023-06-26T05:46:34;17.00;99.90
20204;DHT22;10261;49.010;12.034;2023-06-26T05:47:37;17.00;99.90
20204;DHT22;10261;49.010;12.034;2023-06-26T05:48:39;17.10;99.90
20204;DHT22;10261;49.010;12.034;2023-06-26T05:49:42;17.10;99.90
20204;DHT22;10261;49.010;12.034;2023-06-26T05:50:44;17.10;99.90
20204;DHT22;10261;49.010;12.034;2023-06-26T05:51:48;17.20;99.90
20204;DHT22;10261;49.010;12.034;2023-06-26T05:52:52;17.20;99.90
20204;DHT22;10261;49.010;12.034;2023-06-26T05:53:56;17.30;99.90
20204;DHT22;10261;49.010;12.034;2023-06-26T05:54:58;17.40;99.90
20204;DHT22;10261;49.010;12.034;2023-06-26T05:56:02;17.40;99.90
20204;DHT22;10261;49.010;12.034;2023-06-26T05:57:05;17.50;99.90
20204;DHT22;10261;49.010;12.034;2023-06-26T05:58:10;17.50;99.90
20204;DHT22;10261;49.010;12.034;2023-06-26T05:59:12;17.60;99.90
20204;DHT22;10261;49.010;12.034;2023-06-26T06:00:17;17.60;99.90
20204;DHT22;10261;49.010;12.034;2023-06-26T06:01:19;17.60;99.90
20204;DHT22;10261;49.010;12.034;2023-06-26T06:02:22;17.80;99.90
20204;DHT22;10261;49.010;12.034;2023-06-26T06:03:24;17.80;99.90
20204;DHT22;10261;49.010;12.034;2023-06-26T06:04:28;17.80;99.90
20204;DHT22;10261;49.010;12.034;2023-06-26T06:05:30;17.90;99.90
20204;DHT22;10261;49.010;12.034;2023-06-26T06:06:32;17.90;99.90
20204;DHT22;10261;49.010;12.034;2023-06-26T06:07:35;18.00;99.90
20204;DHT22;10261;49.010;12.034;2023-06-26T06:08:40;18.00;99.90
20204;DHT22;10261;49.010;12.034;2023-06-26T06:09:42;18.00;99.90
20204;DHT22;10261;49.010;12.034;2023-06-26T06:10:44;18.10;99.90
20204;DHT22;10261;49.010;12.034;2023-06-26T06:11:47;18.10;99.90
20204;DHT22;10261;49.010;12.034;2023-06-26T06:12:49;18.10;99.90
20204;DHT22;10261;49.010;12.034;2023-06-26T06:13:52;18.20;99.90
20204;DHT22;10261;49.010;12.034;2023-06-26T06:14:55;18.20;99.90
20204;DHT22;10261;49.010;12.034;2023-06-26T06:15:57;18.30;99.90
20204;DHT22;10261;49.010;12.034;2023-06-26T06:17:00;18.30;99.90
20204;DHT22;10261;49.010;12.034;2023-06-26T06:18:02;18.30;99.90
20204;DHT22;10261;49.010;12.034;2023-06-26T06:19:06;18.30;99.90
20204;DHT22;10261;49.010;12.034;2023-06-26T06:20:10;18.30;99.90
20204;DHT22;10261;49.010;12.034;2023-06-26T06:21:13;18.40;99.90
20204;DHT22;10261;49.010;12.034;2023-06-26T06:22:15;18.40;99.90
20204;DHT22;10261;49.010;12.034;2023-06-26T06:23:19;18.50;99.90
20204;DHT22;10261;49.010;12.034;2023-06-26T06:24:23;18.50;99.90
20204;DHT22;10261;49.010;12.034;2023-06-26T06:25:25;18.50;99.90
20204;DHT22;10261;49.010;12.034;2023-06-26T06:26:27;18.60;99.90
20204;DHT22;10261;49.010;12.034;2023-06-26T06:27:30;18.70;99.90
20204;DHT22;10261;49.010;12.034;2023-06-26T06:28:33;18.60;99.90
20204;DHT22;10261;49.010;12.034;2023-06-26T06:29:35;18.70;99.90
20204;DHT22;10261;49.010;12.034;2023-06-26T06:30:38;18.70;99.90
20204;DHT22;10261;49.010;12.034;2023-06-26T06:31:47;18.80;99.90
20204;DHT22;10261;49.010;12.034;2023-06-26T06:32:49;18.90;99.90
20204;DHT22;10261;49.010;12.034;2023-06-26T06:33:54;19.00;99.90
20204;DHT22;10261;49.010;12.034;2023-06-26T06:34:56;19.00;99.90
20204;DHT22;10261;49.010;12.034;2023-06-26T06:35:59;19.00;99.90
20204;DHT22;10261;49.010;12.034;2023-06-26T06:37:02;19.00;99.90
20204;DHT22;10261;49.010;12.034;2023-06-26T06:38:05;19.10;99.90
20204;DHT22;10261;49.010;12.034;2023-06-26T06:39:07;19.10;99.90
20204;DHT22;10261;49.010;12.034;2023-06-26T06:40:12;19.00;99.90
20204;DHT22;10261;49.010;12.034;2023-06-26T06:41:15;19.10;99.90
20204;DHT22;10261;49.010;12.034;2023-06-26T06:42:18;18.90;99.90
20204;DHT22;10261;49.010;12.034;2023-06-26T06:43:20;18.90;99.90
20204;DHT22;10261;49.010;12.034;2023-06-26T06:44:23;19.10;99.90
20204;DHT22;10261;49.010;12.034;2023-06-26T06:45:25;19.10;99.90
20204;DHT22;10261;49.010;12.034;2023-06-26T06:46:27;18.90;99.90
20204;DHT22;10261;49.010;12.034;2023-06-26T06:47:30;18.90;99.90
20204;DHT22;10261;49.010;12.034;2023-06-26T06:48:32;19.00;99.90
20204;DHT22;10261;49.010;12.034;2023-06-26T06:49:34;18.90;99.90
20204;DHT22;10261;49.010;12.034;2023-06-26T06:50:37;19.00;99.90